Time;durP1;ratioP1;P1;durP2;ratioP2;P2;SDS_P1;SDS_P2;PMS_P1;PMS_P2;Temp;Humidity;BMP_temperature;BMP_pressure;BME280_temperature;BME280_humidity;BME280_pressure;Samples;Min_cycle;Max_cycle;Signal;HPM_P1;HPM_P2
2021/12/18 00:00:31;;;;;;;;;48.25;38.75;;;;;6.73;74.35;103437.81;5090907;27;49898;-67
2021/12/18 00:02:57;;;;;;;;;43.25;36.75;;;;;6.74;74.35;103446.53;5090488;27;49860;-67
2021/12/18 00:05:23;;;;;;;;;35.00;34.25;;;;;6.66;74.17;103439.81;5089825;27;50470;-68
2021/12/18 00:07:48;;;;;;;;;45.25;39.50;;;;;6.73;74.25;103447.34;5090170;27;50075;-68
2021/12/18 00:10:14;;;;;;;;;45.50;40.50;;;;;6.72;74.12;103446.44;5091645;27;49847;-67
2021/12/18 00:12:47;;;;;;;;;38.75;37.00;;;;;6.47;74.26;103408.75;5090330;27;49910;-67
2021/12/18 00:15:13;;;;;;;;;46.00;40.00;;;;;6.64;74.51;103442.28;5091514;27;50678;-67
2021/12/18 00:17:39;;;;;;;;;35.50;30.75;;;;;6.66;74.16;103438.13;5090075;27;49924;-67
2021/12/18 00:20:05;;;;;;;;;37.50;34.75;;;;;6.54;74.50;103427.59;5089991;27;49731;-67
2021/12/18 00:22:30;;;;;;;;;35.50;32.50;;;;;6.53;74.65;103430.09;5089311;27;49918;-67
2021/12/18 00:24:55;;;;;;;;;38.00;33.75;;;;;6.57;74.41;103437.41;5090411;27;49944;-67
2021/12/18 00:27:21;;;;;;;;;39.25;37.50;;;;;6.14;74.43;103357.41;5090127;27;49993;-67
2021/12/18 00:29:46;;;;;;;;;45.75;34.00;;;;;6.57;74.11;103434.78;5090110;27;50189;-67
2021/12/18 00:32:11;;;;;;;;;32.00;31.00;;;;;6.57;74.18;103429.56;5090880;27;49855;-67
2021/12/18 00:34:39;;;;;;;;;38.25;35.25;;;;;6.54;74.05;103424.09;5090162;27;50227;-67
2021/12/18 00:37:04;;;;;;;;;34.25;32.75;;;;;6.49;74.43;103428.97;5090932;27;50165;-67
2021/12/18 00:39:32;;;;;;;;;36.50;35.25;;;;;6.50;74.03;103422.03;5091714;27;49746;-68
2021/12/18 00:42:08;;;;;;;;;34.00;28.25;;;;;6.48;74.07;103424.53;5089626;27;49807;-68
2021/12/18 00:44:34;;;;;;;;;29.75;28.50;;;;;6.34;74.21;103411.16;5090804;27;49837;-68
2021/12/18 00:46:59;;;;;;;;;33.50;29.75;;;;;6.36;74.60;103420.91;5091169;27;49964;-68
2021/12/18 00:49:25;;;;;;;;;33.75;29.50;;;;;6.19;74.04;103382.16;5091185;27;50077;-68
2021/12/18 00:51:51;;;;;;;;;28.50;27.75;;;;;6.21;74.02;103391.00;5091675;27;49742;-68
2021/12/18 00:54:17;;;;;;;;;42.25;33.50;;;;;6.09;74.11;103367.47;5089967;27;50744;-67
2021/12/18 00:56:42;;;;;;;;;34.75;30.50;;;;;6.23;74.14;103398.16;5090136;27;49804;-68
2021/12/18 00:59:08;;;;;;;;;34.75;33.00;;;;;6.38;74.43;103423.69;5090498;27;50033;-68
2021/12/18 01:01:33;;;;;;;;;37.50;35.25;;;;;6.08;73.95;103373.47;5089925;27;49930;-67
2021/12/18 01:03:59;;;;;;;;;34.00;32.50;;;;;5.65;73.97;103294.34;5090668;27;49731;-66
2021/12/18 01:06:25;;;;;;;;;39.00;33.50;;;;;6.18;74.16;103407.34;5091107;27;49754;-67
2021/12/18 01:08:54;;;;;;;;;32.25;28.25;;;;;6.23;73.93;103408.59;5090950;27;49737;-68
2021/12/18 01:14:05;;;;;;;;;33.50;31.25;;;;;6.28;73.90;103409.91;5090372;27;49788;-67
2021/12/18 01:16:43;;;;;;;;;35.75;35.00;;;;;5.93;73.96;103360.09;5088149;27;49844;-67
2021/12/18 01:24:37;;;;;;;;;44.00;31.75;;;;;6.31;73.98;103430.09;5083838;27;49773;-67
2021/12/18 01:27:03;;;;;;;;;35.75;29.25;;;;;6.27;73.26;103422.78;5088907;27;54164;-67
2021/12/18 01:29:28;;;;;;;;;35.75;32.50;;;;;6.20;73.60;103434.44;5090765;27;49795;-67
2021/12/18 01:31:54;;;;;;;;;37.50;33.25;;;;;5.85;73.71;103375.88;5091079;27;49832;-68
2021/12/18 01:34:19;;;;;;;;;30.00;24.50;;;;;6.19;73.85;103437.84;5090091;27;50884;-67
2021/12/18 01:36:44;;;;;;;;;35.75;32.50;;;;;6.19;73.82;103424.81;5083715;27;50061;-67
2021/12/18 01:39:10;;;;;;;;;31.25;29.25;;;;;5.90;73.91;103380.72;5090677;27;49916;-67
2021/12/18 01:41:56;;;;;;;;;36.50;32.25;;;;;6.15;74.09;103434.84;5090038;27;49782;-67
2021/12/18 01:51:12;;;;;;;;;37.50;29.50;;;;;6.08;73.80;103438.69;5090465;27;49592;-67
2021/12/18 01:52:22;;;;;;;;;35.50;28.25;;;;;5.97;74.22;103429.03;5090544;27;49900;-67
2021/12/18 01:54:48;;;;;;;;;30.50;30.50;;;;;6.03;74.08;103437.38;5091384;27;50560;-67
2021/12/18 01:57:14;;;;;;;;;27.75;26.75;;;;;5.81;74.13;103415.53;5092882;27;49785;-68
2021/12/18 01:59:44;;;;;;;;;30.75;29.00;;;;;5.79;74.51;103424.88;5093844;27;49855;-67
2021/12/18 02:02:10;;;;;;;;;35.00;29.75;;;;;5.23;73.82;103314.31;5093734;27;49826;-67
2021/12/18 02:04:36;;;;;;;;;38.75;34.50;;;;;5.88;74.22;103429.16;5093160;27;50531;-67
2021/12/18 02:07:07;;;;;;;;;38.00;30.00;;;;;5.77;74.10;103422.16;5093931;27;49653;-68
2021/12/18 02:10:09;;;;;;;;;33.25;30.75;;;;;5.59;74.41;103387.66;5093953;27;49819;-67
2021/12/18 02:12:33;;;;;;;;;28.50;25.50;;;;;5.81;74.01;103445.09;5092430;27;49749;-67
2021/12/18 02:23:01;;;;;;;;;32.00;30.75;;;;;5.68;74.50;103440.53;5094075;27;49977;-67
2021/12/18 02:25:30;;;;;;;;;33.25;31.00;;;;;5.63;74.70;103444.47;5093491;27;50428;-68
2021/12/18 02:27:55;;;;;;;;;35.25;30.75;;;;;5.62;74.80;103450.47;5093263;27;50373;-68
2021/12/18 02:30:22;;;;;;;;;33.75;31.00;;;;;5.38;74.49;103399.81;5092312;27;49926;-68
2021/12/18 02:32:52;;;;;;;;;43.50;34.00;;;;;5.49;74.92;103421.56;5093165;27;49709;-66
2021/12/18 02:35:28;;;;;;;;;33.50;23.50;;;;;5.61;74.92;103435.63;5092687;27;50491;-69
2021/12/18 02:38:33;;;;;;;;;33.50;29.00;;;;;4.93;74.65;103334.41;5093555;27;50006;-67
2021/12/18 02:41:15;;;;;;;;;36.75;29.50;;;;;5.54;75.20;103441.09;5083256;27;49660;-68
2021/12/18 02:43:41;;;;;;;;;30.50;23.75;;;;;5.56;75.11;103439.53;5093024;27;49826;-67
2021/12/18 02:46:09;;;;;;;;;36.50;31.75;;;;;5.46;75.48;103439.53;5092365;27;49974;-69
2021/12/18 02:48:37;;;;;;;;;34.75;32.25;;;;;5.52;75.33;103441.78;5091641;27;49727;-67
2021/12/18 02:51:04;;;;;;;;;32.50;30.50;;;;;4.82;75.22;103325.66;5091551;27;50231;-67
2021/12/18 02:53:30;;;;;;;;;41.25;31.00;;;;;5.52;75.21;103437.47;5093227;27;49685;-67
2021/12/18 02:55:58;;;;;;;;;35.50;32.00;;;;;5.56;74.79;103442.13;5092827;27;50532;-67
2021/12/18 02:58:24;;;;;;;;;37.25;31.50;;;;;5.50;74.80;103432.88;5092378;27;49795;-67
2021/12/18 03:00:51;;;;;;;;;32.25;28.00;;;;;5.43;75.31;103421.06;5091680;27;49992;-67
2021/12/18 03:03:17;;;;;;;;;34.75;32.50;;;;;5.64;75.24;103446.31;5093217;27;49683;-67
2021/12/18 03:06:02;;;;;;;;;27.25;26.75;;;;;5.55;74.80;103424.69;5092471;27;49754;-67
2021/12/18 03:08:47;;;;;;;;;40.25;33.00;;;;;5.65;74.66;103437.69;5092743;27;49930;-67
2021/12/18 03:24:54;;;;;;;;;35.00;29.25;;;;;5.37;75.25;103413.63;5092820;27;49597;-66
2021/12/18 03:27:20;;;;;;;;;34.00;31.00;;;;;5.51;74.95;103432.13;5091248;27;49965;-68
2021/12/18 03:29:46;;;;;;;;;33.25;33.25;;;;;5.73;74.75;103439.25;5091261;27;49835;-68
2021/12/18 03:32:12;;;;;;;;;43.75;33.00;;;;;5.69;75.12;103431.03;5092222;27;49885;-67
2021/12/18 03:34:37;;;;;;;;;31.75;27.50;;;;;5.83;74.76;103443.53;5092896;27;49823;-67
2021/12/18 03:37:03;;;;;;;;;37.00;33.25;;;;;5.62;74.38;103403.56;5092507;27;49705;-67
2021/12/18 03:39:29;;;;;;;;;29.25;28.75;;;;;5.74;75.17;103432.34;5091179;27;49853;-67
2021/12/18 03:41:55;;;;;;;;;34.25;31.50;;;;;5.74;75.10;103428.03;5092135;27;49815;-67
2021/12/18 03:44:21;;;;;;;;;37.75;35.75;;;;;5.83;74.69;103424.38;5092012;27;49667;-67
2021/12/18 03:46:46;;;;;;;;;31.50;28.25;;;;;5.91;74.84;103428.56;5091379;27;50767;-67
2021/12/18 03:49:12;;;;;;;;;38.25;35.00;;;;;5.90;75.29;103424.09;5091114;27;50007;-67
2021/12/18 03:51:37;;;;;;;;;29.50;29.00;;;;;5.79;75.19;103402.38;5092444;27;49787;-68
2021/12/18 03:54:04;;;;;;;;;30.75;27.75;;;;;5.96;75.19;103422.00;5092308;27;49852;-67
2021/12/18 03:56:30;;;;;;;;;25.25;21.25;;;;;5.93;75.63;103420.06;5091770;27;49759;-67
2021/12/18 03:58:55;;;;;;;;;36.75;35.50;;;;;5.98;75.70;103417.81;5091589;27;49988;-67
2021/12/18 04:01:21;;;;;;;;;38.50;34.50;;;;;5.99;75.13;103417.06;5090499;27;50109;-68
2021/12/18 04:03:46;;;;;;;;;41.00;27.00;;;;;6.03;75.35;103408.69;5090775;27;49699;-67
2021/12/18 04:06:12;;;;;;;;;37.00;30.00;;;;;6.03;75.08;103403.47;5091475;27;49844;-67
2021/12/18 04:08:37;;;;;;;;;35.75;28.75;;;;;6.09;75.36;103413.50;5091978;27;49805;-68
2021/12/18 04:11:03;;;;;;;;;39.25;30.75;;;;;5.91;75.24;103366.00;5092012;27;49921;-68
2021/12/18 04:13:30;;;;;;;;;36.25;34.00;;;;;6.01;75.21;103400.75;5091165;27;50050;-68
2021/12/18 04:15:55;;;;;;;;;39.00;32.75;;;;;6.18;75.02;103415.16;5091554;27;50731;-67
2021/12/18 04:18:20;;;;;;;;;39.00;31.50;;;;;6.22;74.81;103406.78;5089922;27;49770;-68
2021/12/18 04:20:46;;;;;;;;;45.75;39.00;;;;;6.32;75.05;103418.88;5091152;27;50336;-68
2021/12/18 04:23:11;;;;;;;;;34.50;30.75;;;;;5.96;74.90;103349.00;5091841;27;50132;-67
2021/12/18 04:25:36;;;;;;;;;28.75;28.25;;;;;6.46;74.99;103414.72;5090716;27;50375;-67
2021/12/18 04:28:02;;;;;;;;;37.25;35.25;;;;;6.35;74.39;103393.00;5090920;27;49895;-67
2021/12/18 04:30:27;;;;;;;;;35.75;35.50;;;;;6.49;74.22;103417.63;5091037;27;49778;-68
2021/12/18 04:32:53;;;;;;;;;36.75;34.25;;;;;6.30;74.72;103384.84;5091552;27;49868;-67
2021/12/18 04:35:18;;;;;;;;;35.00;35.00;;;;;6.36;74.76;103386.09;5091716;27;50518;-68
2021/12/18 04:37:44;;;;;;;;;39.00;30.25;;;;;6.40;74.60;103389.09;5091646;27;49942;-68
2021/12/18 04:40:10;;;;;;;;;38.50;34.75;;;;;6.47;74.34;103400.94;5091500;27;49800;-68
2021/12/18 04:42:35;;;;;;;;;36.00;36.00;;;;;6.52;74.51;103417.84;5091509;27;49897;-68
2021/12/18 04:45:01;;;;;;;;;40.00;34.75;;;;;6.55;74.55;103416.38;5089864;27;50527;-68
2021/12/18 04:47:26;;;;;;;;;28.25;23.75;;;;;6.54;75.38;103421.47;5091611;27;49910;-68
2021/12/18 04:49:51;;;;;;;;;41.00;32.00;;;;;6.41;74.38;103388.28;5091468;27;49800;-68
2021/12/18 04:52:16;;;;;;;;;40.75;36.00;;;;;6.61;74.71;103415.97;5091587;27;49756;-68
2021/12/18 04:54:44;;;;;;;;;31.00;29.25;;;;;6.63;74.72;103426.53;5090962;27;50630;-68
2021/12/18 04:57:10;;;;;;;;;43.25;40.00;;;;;6.65;74.68;103425.84;5091146;27;49854;-68
2021/12/18 04:59:42;;;;;;;;;37.25;35.00;;;;;6.68;74.48;103427.81;5090767;27;49762;-67
2021/12/18 05:02:07;;;;;;;;;43.00;36.75;;;;;6.68;74.89;103422.59;5091410;27;49616;-68
2021/12/18 05:04:33;;;;;;;;;35.25;28.50;;;;;6.63;74.93;103403.94;5091145;27;50476;-67
2021/12/18 05:06:58;;;;;;;;;43.75;37.00;;;;;6.32;74.45;103346.72;5091032;27;49986;-68
2021/12/18 05:09:23;;;;;;;;;38.50;34.50;;;;;6.38;74.95;103358.44;5091270;27;49644;-68
2021/12/18 05:11:50;;;;;;;;;36.00;35.25;;;;;6.55;74.36;103392.88;5091053;27;49612;-67
2021/12/18 05:14:15;;;;;;;;;36.25;31.50;;;;;6.75;74.17;103427.47;5090901;27;49990;-67
2021/12/18 05:16:40;;;;;;;;;41.25;34.00;;;;;6.66;74.57;103421.53;5091092;27;49107;-68
2021/12/18 05:19:06;;;;;;;;;39.25;38.00;;;;;6.66;74.12;103417.25;5090995;27;49702;-68
2021/12/18 05:21:31;;;;;;;;;34.75;33.00;;;;;6.53;74.23;103390.94;5091220;27;49746;-67
2021/12/18 05:23:56;;;;;;;;;26.25;22.75;;;;;6.73;74.65;103429.97;5090811;27;50901;-68
2021/12/18 05:26:22;;;;;;;;;48.25;36.50;;;;;6.28;74.49;103336.84;5090443;27;49891;-68
2021/12/18 05:28:47;;;;;;;;;37.25;33.25;;;;;6.81;74.61;103426.28;5089832;27;49904;-67
2021/12/18 05:31:16;;;;;;;;;36.25;29.25;;;;;6.87;74.18;103426.75;5090646;27;49874;-67
2021/12/18 05:33:46;;;;;;;;;31.75;29.50;;;;;6.76;74.20;103424.09;5089328;27;51892;-67
2021/12/18 05:36:39;;;;;;;;;39.00;35.00;;;;;6.24;73.89;103326.94;5089207;27;50030;-67
2021/12/18 05:39:08;;;;;;;;;41.00;37.50;;;;;6.87;74.35;103431.06;5091015;27;49955;-67
2021/12/18 05:41:34;;;;;;;;;42.25;37.25;;;;;6.69;73.67;103399.22;5090709;27;49745;-67
2021/12/18 05:43:59;;;;;;;;;36.50;29.50;;;;;6.89;73.93;103434.72;5090319;27;50891;-68
2021/12/18 05:46:25;;;;;;;;;38.00;33.25;;;;;6.69;73.84;103394.00;5089346;27;49812;-67
2021/12/18 05:48:50;;;;;;;;;40.50;35.50;;;;;6.84;73.81;103413.44;5088543;27;49637;-68
2021/12/18 05:51:16;;;;;;;;;39.50;33.50;;;;;6.80;73.45;103424.44;5089307;27;50014;-67
2021/12/18 05:53:41;;;;;;;;;36.25;32.50;;;;;6.67;73.97;103392.97;5089449;27;50615;-67
2021/12/18 05:56:07;;;;;;;;;34.25;29.75;;;;;6.87;73.70;103410.19;5088969;27;49863;-67
2021/12/18 05:58:32;;;;;;;;;31.00;27.75;;;;;6.87;73.74;103418.94;5090273;27;49816;-67
2021/12/18 06:00:57;;;;;;;;;29.25;27.75;;;;;6.77;72.98;103412.88;5090511;27;49687;-68
2021/12/18 06:03:23;;;;;;;;;38.50;32.75;;;;;6.66;73.08;103403.25;5089158;27;49931;-67
2021/12/18 06:05:48;;;;;;;;;24.75;20.25;;;;;6.79;73.85;103419.13;5089211;27;49838;-67
2021/12/18 06:08:14;;;;;;;;;28.00;24.75;;;;;6.51;73.57;103366.44;5090523;27;49732;-68
2021/12/18 06:10:40;;;;;;;;;29.50;27.75;;;;;6.52;73.32;103365.66;5090511;27;49658;-67
2021/12/18 06:13:05;;;;;;;;;29.25;24.75;;;;;6.78;73.39;103418.22;5089486;27;50722;-67
2021/12/18 06:15:31;;;;;;;;;39.50;28.75;;;;;6.58;73.39;103381.81;5089992;27;49861;-67
2021/12/18 06:17:58;;;;;;;;;34.00;28.75;;;;;6.74;73.22;103425.66;5090437;27;49710;-68
2021/12/18 06:20:24;;;;;;;;;34.50;28.75;;;;;6.60;73.40;103393.28;5090622;27;49815;-67
2021/12/18 06:22:50;;;;;;;;;30.25;28.75;;;;;6.44;72.85;103366.75;5088954;27;49680;-67
2021/12/18 06:25:15;;;;;;;;;11.00;8.75;;;;;6.64;72.37;103413.59;5090271;27;49636;-67
2021/12/18 06:27:40;;;;;;;;;30.50;25.50;;;;;6.20;72.62;103324.00;5089710;27;49699;-67
2021/12/18 06:30:07;;;;;;;;;22.25;21.00;;;;;6.58;72.99;103400.06;5089241;27;49687;-67
2021/12/18 06:32:32;;;;;;;;;29.75;26.50;;;;;6.59;72.86;103412.34;5087807;27;51467;-67
2021/12/18 06:34:58;;;;;;;;;29.00;28.75;;;;;6.33;73.22;103365.91;5089001;27;49721;-68
2021/12/18 06:37:23;;;;;;;;;31.50;30.75;;;;;6.51;72.85;103390.84;5089243;27;49776;-68
2021/12/18 06:39:49;;;;;;;;;31.50;28.00;;;;;6.45;72.73;103392.03;5088620;27;49790;-67
2021/12/18 06:42:14;;;;;;;;;38.75;32.25;;;;;6.49;72.59;103413.31;5091513;27;50706;-67
2021/12/18 06:44:39;;;;;;;;;24.75;24.75;;;;;6.41;73.13;103403.03;5093024;27;49659;-67
2021/12/18 06:47:05;;;;;;;;;33.75;29.25;;;;;6.52;72.87;103425.69;5093363;27;49952;-67
2021/12/18 06:49:30;;;;;;;;;32.00;27.50;;;;;6.24;72.79;103389.53;5092683;27;49832;-68
2021/12/18 06:51:57;;;;;;;;;29.00;25.50;;;;;6.43;72.85;103422.34;5091643;27;49850;-67
2021/12/18 06:54:22;;;;;;;;;31.50;29.75;;;;;6.30;73.08;103408.31;5092417;27;49974;-68
2021/12/18 06:56:48;;;;;;;;;27.75;27.50;;;;;6.26;72.58;103405.31;5092105;27;50280;-67
2021/12/18 06:59:13;;;;;;;;;29.25;26.50;;;;;6.39;72.96;103428.09;5092694;27;49952;-67
2021/12/18 07:01:38;;;;;;;;;30.50;27.50;;;;;6.34;72.85;103432.03;5092410;27;49763;-67
2021/12/18 07:04:04;;;;;;;;;25.00;25.00;;;;;6.05;73.40;103381.03;5092659;27;49815;-68
2021/12/18 07:06:29;;;;;;;;;30.50;30.50;;;;;6.37;73.29;103438.44;5091712;27;49758;-67
2021/12/18 07:08:54;;;;;;;;;28.25;27.25;;;;;6.21;73.48;103410.19;5093094;27;49806;-68
2021/12/18 07:11:20;;;;;;;;;34.50;29.00;;;;;6.01;73.36;103378.97;5091915;27;49891;-67
2021/12/18 07:13:45;;;;;;;;;32.75;27.25;;;;;6.30;73.66;103437.00;5091524;27;49880;-67
2021/12/18 07:16:11;;;;;;;;;30.00;28.00;;;;;6.32;73.56;103439.75;5092624;27;50242;-67
2021/12/18 07:18:36;;;;;;;;;38.00;33.50;;;;;6.26;73.54;103428.78;5092759;27;50080;-67
2021/12/18 07:21:02;;;;;;;;;32.75;29.25;;;;;6.09;73.96;103411.81;5091575;27;49829;-67
2021/12/18 07:23:27;;;;;;;;;27.00;27.00;;;;;6.11;74.00;103412.84;5091934;27;49817;-67
2021/12/18 07:25:52;;;;;;;;;40.75;36.00;;;;;5.64;73.73;103333.34;5092714;27;49838;-67
2021/12/18 07:28:18;;;;;;;;;36.75;27.25;;;;;6.19;73.67;103430.03;5092547;27;49912;-67
2021/12/18 07:30:43;;;;;;;;;30.50;30.25;;;;;6.04;73.26;103402.69;5091307;27;50918;-68
2021/12/18 07:33:11;;;;;;;;;32.75;26.75;;;;;6.29;73.47;103448.25;5092106;27;49751;-67
2021/12/18 07:35:40;;;;;;;;;33.75;26.50;;;;;6.15;73.61;103435.75;5092408;27;50193;-67
2021/12/18 07:38:06;;;;;;;;;36.00;31.75;;;;;6.28;73.55;103462.06;5092594;27;50057;-67
2021/12/18 07:40:34;;;;;;;;;33.00;29.50;;;;;6.27;73.66;103456.69;5092102;27;50805;-68
2021/12/18 07:42:59;;;;;;;;;36.50;34.75;;;;;6.23;73.80;103460.78;5091976;27;49576;-67
2021/12/18 07:45:25;;;;;;;;;36.75;28.25;;;;;6.29;73.27;103456.06;5090930;27;50011;-68
2021/12/18 07:47:50;;;;;;;;;32.50;30.75;;;;;6.22;73.35;103448.53;5092400;27;49938;-67
2021/12/18 07:50:20;;;;;;;;;39.75;33.75;;;;;6.22;73.70;103443.31;5092289;27;49908;-68
2021/12/18 07:52:47;;;;;;;;;40.25;36.50;;;;;6.13;73.28;103421.69;5091197;27;49882;-67
2021/12/18 07:55:12;;;;;;;;;27.75;26.00;;;;;5.86;73.06;103393.31;5090927;27;49854;-68
2021/12/18 07:57:37;;;;;;;;;32.50;30.00;;;;;6.14;73.34;103449.59;5091479;27;49940;-66
2021/12/18 08:00:06;;;;;;;;;34.50;26.50;;;;;6.21;73.22;103454.53;5090999;27;50458;-73
2021/12/18 08:02:32;;;;;;;;;33.00;31.50;;;;;6.21;73.27;103456.22;5092949;27;50098;-65
2021/12/18 08:04:57;;;;;;;;;28.25;25.25;;;;;6.16;73.28;103439.28;5091905;27;49859;-70
2021/12/18 08:07:22;;;;;;;;;31.50;29.00;;;;;6.15;73.35;103438.38;5092174;27;49741;-68
2021/12/18 08:09:48;;;;;;;;;32.75;27.75;;;;;5.97;73.44;103401.25;5090699;27;49765;-69
2021/12/18 08:12:13;;;;;;;;;39.75;35.00;;;;;5.84;73.31;103374.97;5090390;27;49794;-68
2021/12/18 08:14:41;;;;;;;;;28.50;25.50;;;;;6.11;72.86;103424.97;5091943;27;49795;-70
2021/12/18 08:17:07;;;;;;;;;32.50;30.50;;;;;6.26;73.05;103457.50;5083992;27;49925;-71
2021/12/18 08:19:32;;;;;;;;;27.25;25.75;;;;;6.23;73.43;103470.28;5090434;27;50457;-67
2021/12/18 08:21:57;;;;;;;;;36.50;32.50;;;;;6.03;73.04;103432.16;5090210;27;49741;-68
2021/12/18 08:24:23;;;;;;;;;23.50;20.50;;;;;5.89;73.26;103398.81;5089823;27;49931;-69
2021/12/18 08:26:48;;;;;;;;;28.25;25.50;;;;;6.10;72.78;103437.09;5090070;27;50115;-66
2021/12/18 08:29:14;;;;;;;;;31.00;28.25;;;;;5.88;73.08;103403.09;5090957;27;51036;-71
2021/12/18 08:31:40;;;;;;;;;34.50;32.75;;;;;5.83;72.92;103391.38;5088394;27;49969;-80
2021/12/18 08:34:05;;;;;;;;;27.75;25.25;;;;;5.97;72.88;103421.22;5094008;27;49947;-72
2021/12/18 08:36:30;;;;;;;;;27.25;27.00;;;;;6.20;73.27;103468.34;5091279;27;49944;-69
2021/12/18 08:38:56;;;;;;;;;36.75;30.50;;;;;6.22;72.92;103471.09;5090587;27;50377;-71
2021/12/18 08:41:22;;;;;;;;;22.50;22.50;;;;;6.15;72.86;103464.44;5088365;27;49726;-70
2021/12/18 08:43:49;;;;;;;;;31.25;29.50;;;;;6.15;72.92;103467.06;5090859;27;49751;-72
2021/12/18 08:46:17;;;;;;;;;27.50;22.75;;;;;6.22;72.71;103474.59;5091856;27;49564;-72
2021/12/18 08:48:43;;;;;;;;;31.00;27.75;;;;;6.25;72.31;103472.22;5091432;27;49934;-69
2021/12/18 08:51:08;;;;;;;;;29.00;27.00;;;;;6.14;72.32;103452.19;5091127;27;50046;-70
2021/12/18 08:53:33;;;;;;;;;26.50;24.00;;;;;5.87;72.45;103416.00;5091192;27;49627;-69
2021/12/18 08:55:59;;;;;;;;;25.75;25.50;;;;;6.28;72.44;103482.94;5090930;27;49684;-67
2021/12/18 08:58:24;;;;;;;;;31.00;27.75;;;;;6.30;72.24;103470.94;5090050;27;49807;-69
2021/12/18 09:00:50;;;;;;;;;24.50;24.50;;;;;6.16;72.27;103439.28;5091314;27;49726;-69
2021/12/18 09:03:16;;;;;;;;;34.25;27.00;;;;;6.32;71.99;103477.16;5090518;27;50178;-69
2021/12/18 09:05:41;;;;;;;;;31.75;31.25;;;;;5.96;72.05;103399.44;5091341;27;49548;-69
2021/12/18 09:08:07;;;;;;;;;28.25;24.00;;;;;6.35;72.17;103466.06;5092418;27;50328;-67
2021/12/18 09:10:32;;;;;;;;;36.25;32.00;;;;;6.11;71.95;103419.75;5089830;27;49730;-69
2021/12/18 09:12:58;;;;;;;;;25.25;24.50;;;;;6.46;72.58;103464.31;5089443;27;49768;-66
2021/12/18 09:15:23;;;;;;;;;32.50;29.25;;;;;6.19;71.49;103413.47;5089953;27;50103;-70
2021/12/18 09:17:49;;;;;;;;;34.50;25.75;;;;;6.09;71.67;103392.66;5093130;27;50939;-68
2021/12/18 09:20:15;;;;;;;;;27.00;24.25;;;;;5.89;71.27;103341.47;5091278;27;49877;-65
2021/12/18 09:22:40;;;;;;;;;31.75;28.75;;;;;6.32;71.13;103416.25;5096234;27;49775;-70
2021/12/18 09:25:07;;;;;;;;;27.75;23.75;;;;;6.62;71.42;103446.50;5089539;27;49868;-71
2021/12/18 09:27:34;;;;;;;;;34.25;30.25;;;;;6.49;71.17;103428.97;5088257;27;49966;-68
2021/12/18 09:29:59;;;;;;;;;34.75;29.50;;;;;6.60;70.81;103446.38;5090825;27;49860;-69
2021/12/18 09:32:25;;;;;;;;;28.75;24.50;;;;;6.60;71.03;103446.38;5089157;27;49873;-73
2021/12/18 09:34:50;;;;;;;;;31.00;30.75;;;;;5.15;71.00;103186.06;5089576;27;49837;-74
2021/12/18 09:37:16;;;;;;;;;25.75;23.00;;;;;5.48;70.95;103273.84;5099735;27;50748;-72
2021/12/18 09:39:42;;;;;;;;;33.00;28.50;;;;;6.55;71.37;103452.00;5088137;27;49706;-71
2021/12/18 09:42:07;;;;;;;;;27.00;26.75;;;;;6.38;70.84;103437.63;5088283;27;49852;-74
2021/12/18 09:44:35;;;;;;;;;33.75;30.75;;;;;6.00;70.70;103369.34;5089056;27;49782;-68
2021/12/18 09:47:02;;;;;;;;;30.25;25.00;;;;;6.34;70.94;103396.41;5088485;27;50107;-70
2021/12/18 09:49:28;;;;;;;;;30.75;23.25;;;;;6.25;71.49;103370.50;5088383;27;50097;-68
2021/12/18 09:51:54;;;;;;;;;37.00;30.75;;;;;6.56;70.70;103409.44;5088883;27;49829;-68
2021/12/18 09:54:21;;;;;;;;;28.75;23.50;;;;;6.46;70.32;103404.28;5090609;27;49964;-71
2021/12/18 09:56:46;;;;;;;;;29.50;27.00;;;;;6.50;70.41;103433.38;5089276;27;51440;-72
2021/12/18 09:59:12;;;;;;;;;34.50;29.00;;;;;6.54;70.85;103401.50;5090429;27;49739;-69
2021/12/18 10:01:41;;;;;;;;;28.25;24.50;;;;;6.85;70.28;103440.47;5090379;27;49736;-73
2021/12/18 10:04:24;;;;;;;;;32.50;29.75;;;;;5.73;70.25;103238.56;5090481;27;49777;-70
2021/12/18 10:06:49;;;;;;;;;33.25;26.00;;;;;6.95;70.36;103447.31;5090012;27;49752;-70
2021/12/18 10:09:17;;;;;;;;;40.00;28.50;;;;;6.80;70.60;103406.19;5091047;27;50092;-73
2021/12/18 10:11:53;;;;;;;;;36.00;32.00;;;;;6.26;70.04;103298.38;5090214;27;49911;-74
2021/12/18 10:14:31;;;;;;;;;34.75;28.50;;;;;6.64;70.03;103355.25;5090469;27;49855;-73
2021/12/18 10:16:56;;;;;;;;;25.50;25.50;;;;;7.12;69.82;103424.34;5092848;27;50014;-73
2021/12/18 10:19:23;;;;;;;;;29.75;28.50;;;;;7.08;68.82;103411.84;5093580;27;49786;-73
2021/12/18 10:22:02;;;;;;;;;25.75;23.75;;;;;7.25;69.54;103439.28;5093488;27;49872;-73
2021/12/18 10:24:29;;;;;;;;;28.75;27.75;;;;;6.14;69.07;103273.94;5087149;27;50403;-71
2021/12/18 10:26:55;;;;;;;;;34.50;30.50;;;;;6.44;68.95;103322.38;5093184;27;50470;-73
2021/12/18 10:29:30;;;;;;;;;33.50;27.25;;;;;7.32;69.30;103425.84;5093579;27;49962;-73
2021/12/18 10:32:03;;;;;;;;;30.50;29.75;;;;;6.56;68.63;103303.41;5093554;27;49709;-73
2021/12/18 10:34:28;;;;;;;;;27.75;27.75;;;;;7.29;68.84;103411.66;5093815;27;49936;-71
2021/12/18 10:37:13;;;;;;;;;35.00;31.50;;;;;7.39;69.08;103422.03;5093286;27;50289;-72
2021/12/18 10:39:53;;;;;;;;;33.25;30.25;;;;;5.61;68.50;103103.78;5093589;27;50052;-72
2021/12/18 10:42:23;;;;;;;;;33.75;25.75;;;;;7.23;68.00;103383.34;5093072;27;49725;-71
2021/12/18 10:45:08;;;;;;;;;26.50;25.00;;;;;6.23;68.63;103205.13;5092182;27;49968;-68
2021/12/18 10:47:50;;;;;;;;;25.25;23.00;;;;;7.53;68.04;103409.97;5093194;27;50860;-73
2021/12/18 10:50:23;;;;;;;;;29.50;26.75;;;;;6.18;67.87;103196.06;5091726;27;50188;-72
2021/12/18 10:52:57;;;;;;;;;25.50;25.50;;;;;6.56;67.73;103271.13;5093405;27;49882;-70
2021/12/18 10:55:31;;;;;;;;;33.50;31.00;;;;;5.92;67.89;103114.91;5093706;27;49914;-69
2021/12/18 10:57:57;;;;;;;;;36.00;33.00;;;;;7.67;67.74;103399.78;5092663;27;50643;-71
2021/12/18 11:00:41;;;;;;;;;34.75;30.50;;;;;7.73;67.41;103394.09;5092933;27;49876;-69
2021/12/18 11:03:23;;;;;;;;;35.25;31.25;;;;;7.81;67.27;103389.41;5093156;27;49774;-70
2021/12/18 11:06:07;;;;;;;;;33.00;28.50;;;;;7.56;66.67;103347.50;5093409;27;49837;-70
2021/12/18 11:08:36;;;;;;;;;29.75;23.75;;;;;6.58;66.42;103173.91;5092878;27;50280;-70
2021/12/18 11:13:51;;;;;;;;;32.50;27.00;;;;;7.23;66.38;103278.84;5092743;27;49882;-69
2021/12/18 11:16:18;;;;;;;;;25.75;21.75;;;;;7.97;66.15;103377.59;5093086;27;49683;-71
2021/12/18 11:18:45;;;;;;;;;30.75;26.75;;;;;7.18;65.98;103254.09;5092674;27;51104;-71
2021/12/18 11:21:11;;;;;;;;;28.25;26.50;;;;;8.09;65.48;103381.88;5093070;27;49727;-71
2021/12/18 11:23:47;;;;;;;;;36.50;27.25;;;;;7.04;65.45;103220.81;5092614;27;49783;-71
2021/12/18 11:26:14;;;;;;;;;34.00;32.25;;;;;6.82;65.86;103173.91;5092305;27;49737;-71
2021/12/18 11:28:44;;;;;;;;;26.00;24.50;;;;;8.03;66.22;103362.34;5092849;27;49962;-70
2021/12/18 11:31:10;;;;;;;;;30.00;23.00;;;;;8.21;65.64;103380.19;5092456;27;49722;-71
2021/12/18 11:33:36;;;;;;;;;31.75;25.75;;;;;8.19;65.01;103361.72;5092353;27;49712;-70
2021/12/18 11:36:04;;;;;;;;;31.25;26.25;;;;;8.32;64.82;103372.28;5092552;27;49730;-71
2021/12/18 11:38:31;;;;;;;;;32.50;28.75;;;;;8.01;64.68;103309.00;5092771;27;49991;-71
2021/12/18 11:40:57;;;;;;;;;24.00;23.75;;;;;8.17;64.43;103321.47;5092356;27;49829;-71
2021/12/18 11:43:31;;;;;;;;;28.00;24.75;;;;;8.51;65.63;103378.88;5092051;27;49918;-71
2021/12/18 11:45:57;;;;;;;;;29.50;27.50;;;;;8.58;65.66;103371.53;5092626;27;49718;-71
2021/12/18 11:48:23;;;;;;;;;31.50;30.00;;;;;8.55;64.05;103342.53;5092042;27;50687;-72
2021/12/18 11:50:48;;;;;;;;;22.50;21.50;;;;;7.90;64.08;103222.72;5090850;27;49736;-71
2021/12/18 11:53:16;;;;;;;;;30.50;25.50;;;;;7.66;64.07;103214.94;5090993;27;49800;-71
2021/12/18 11:55:48;;;;;;;;;31.50;27.00;;;;;8.66;63.53;103360.69;5092200;27;49834;-71